Terminal Aerodrome Forecast
Issued by NWS Cleveland, OH

Home | Current Version | Previous Version | Graphics & Text | Print | Product List | Glossary Off
Versions: 1 2 3 4 5 6 7 8 9 10 11 12 13 14 15 16 17 18 19 20

643
FTUS41 KCLE 130944 AAA
TAFYNG
TAF AMD
KYNG 130944Z 1310/1406 30012G20KT P6SM -SHSN OVC035
      TEMPO 1310/1312 3SM -SHSN OVC015
     FM131200 30012G20KT 6SM -SHSN OVC025
      TEMPO 1312/1315 2SM -SHSN OVC015
     FM132300 31012KT P6SM BKN035=

USA.gov is the U.S. government's official web portal to all federal, state and local government web resources and services.